sensor_id;sensor_type;location;lat;lon;timestamp;P1;durP1;ratioP1;P2;durP2;ratioP2
34521;SDS011;25561;48.888;8.736;2022-10-31T06:49:48;20.85;;;6.15;;
34521;SDS011;25561;48.888;8.736;2022-10-31T06:52:54;55.00;;;16.02;;
34521;SDS011;25561;48.888;8.736;2022-10-31T06:55:57;27.85;;;7.40;;
34521;SDS011;25561;48.888;8.736;2022-10-31T06:58:59;20.17;;;6.43;;
34521;SDS011;25561;48.888;8.736;2022-10-31T07:02:01;24.42;;;6.10;;
34521;SDS011;25561;48.888;8.736;2022-10-31T07:05:03;40.88;;;7.68;;
34521;SDS011;25561;48.888;8.736;2022-10-31T07:08:06;52.28;;;11.23;;
34521;SDS011;25561;48.888;8.736;2022-10-31T07:11:10;26.55;;;6.55;;
34521;SDS011;25561;48.888;8.736;2022-10-31T07:14:11;20.30;;;4.78;;
34521;SDS011;25561;48.888;8.736;2022-10-31T07:17:13;17.08;;;4.60;;
34521;SDS011;25561;48.888;8.736;2022-10-31T07:20:15;13.25;;;5.32;;
34521;SDS011;25561;48.888;8.736;2022-10-31T07:23:17;15.40;;;4.47;;
34521;SDS011;25561;48.888;8.736;2022-10-31T07:26:19;21.92;;;5.18;;
34521;SDS011;25561;48.888;8.736;2022-10-31T07:29:21;21.70;;;5.68;;
34521;SDS011;25561;48.888;8.736;2022-10-31T07:32:22;44.78;;;8.35;;
34521;SDS011;25561;48.888;8.736;2022-10-31T07:35:25;195.05;;;23.65;;
34521;SDS011;25561;48.888;8.736;2022-10-31T07:38:29;30.40;;;5.63;;
34521;SDS011;25561;48.888;8.736;2022-10-31T07:41:30;25.00;;;4.88;;
34521;SDS011;25561;48.888;8.736;2022-10-31T07:44:32;28.52;;;5.22;;
34521;SDS011;25561;48.888;8.736;2022-10-31T07:47:40;33.53;;;6.97;;
34521;SDS011;25561;48.888;8.736;2022-10-31T07:50:45;37.95;;;5.32;;
34521;SDS011;25561;48.888;8.736;2022-10-31T07:53:47;51.58;;;7.13;;
34521;SDS011;25561;48.888;8.736;2022-10-31T07:56:49;45.03;;;6.18;;
34521;SDS011;25561;48.888;8.736;2022-10-31T07:59:50;19.65;;;4.50;;
34521;SDS011;25561;48.888;8.736;2022-10-31T08:03:00;11.07;;;4.20;;
34521;SDS011;25561;48.888;8.736;2022-10-31T08:06:04;16.67;;;4.78;;
34521;SDS011;25561;48.888;8.736;2022-10-31T08:09:06;14.73;;;4.30;;
34521;SDS011;25561;48.888;8.736;2022-10-31T08:12:08;10.93;;;4.15;;
34521;SDS011;25561;48.888;8.736;2022-10-31T08:15:10;16.88;;;4.32;;
34521;SDS011;25561;48.888;8.736;2022-10-31T08:18:12;13.82;;;4.03;;
34521;SDS011;25561;48.888;8.736;2022-10-31T08:21:15;18.33;;;4.65;;
34521;SDS011;25561;48.888;8.736;2022-10-31T08:24:16;12.65;;;4.45;;
34521;SDS011;25561;48.888;8.736;2022-10-31T08:27:19;14.07;;;4.53;;
34521;SDS011;25561;48.888;8.736;2022-10-31T08:30:21;18.60;;;3.90;;
34521;SDS011;25561;48.888;8.736;2022-10-31T08:33:25;15.30;;;4.72;;
34521;SDS011;25561;48.888;8.736;2022-10-31T08:36:27;14.25;;;4.30;;
34521;SDS011;25561;48.888;8.736;2022-10-31T08:39:29;16.05;;;4.88;;
34521;SDS011;25561;48.888;8.736;2022-10-31T08:42:31;14.05;;;4.45;;
34521;SDS011;25561;48.888;8.736;2022-10-31T08:45:33;15.45;;;5.40;;
34521;SDS011;25561;48.888;8.736;2022-10-31T08:48:35;25.33;;;4.82;;
34521;SDS011;25561;48.888;8.736;2022-10-31T08:51:37;9.50;;;3.95;;
34521;SDS011;25561;48.888;8.736;2022-10-31T08:54:39;45.40;;;6.97;;
34521;SDS011;25561;48.888;8.736;2022-10-31T08:57:41;15.07;;;5.45;;
34521;SDS011;25561;48.888;8.736;2022-10-31T09:00:43;15.70;;;4.57;;
34521;SDS011;25561;48.888;8.736;2022-10-31T09:03:46;19.83;;;5.43;;
34521;SDS011;25561;48.888;8.736;2022-10-31T09:06:48;32.78;;;6.32;;
34521;SDS011;25561;48.888;8.736;2022-10-31T09:10:10;12.38;;;4.95;;
34521;SDS011;25561;48.888;8.736;2022-10-31T09:13:13;14.10;;;4.47;;
34521;SDS011;25561;48.888;8.736;2022-10-31T09:16:16;31.63;;;6.50;;
34521;SDS011;25561;48.888;8.736;2022-10-31T09:19:18;19.20;;;5.03;;
34521;SDS011;25561;48.888;8.736;2022-10-31T09:22:20;21.95;;;4.97;;
34521;SDS011;25561;48.888;8.736;2022-10-31T09:25:21;14.02;;;5.15;;
34521;SDS011;25561;48.888;8.736;2022-10-31T09:28:23;22.38;;;5.15;;
34521;SDS011;25561;48.888;8.736;2022-10-31T09:31:25;16.08;;;4.70;;
34521;SDS011;25561;48.888;8.736;2022-10-31T09:34:27;12.60;;;3.90;;
34521;SDS011;25561;48.888;8.736;2022-10-31T09:37:28;17.50;;;5.18;;
34521;SDS011;25561;48.888;8.736;2022-10-31T09:40:32;17.45;;;5.15;;
34521;SDS011;25561;48.888;8.736;2022-10-31T09:44:13;16.88;;;5.22;;
34521;SDS011;25561;48.888;8.736;2022-10-31T09:47:11;43.22;;;8.65;;
34521;SDS011;25561;48.888;8.736;2022-10-31T09:50:28;19.25;;;5.38;;
34521;SDS011;25561;48.888;8.736;2022-10-31T09:53:40;14.50;;;5.20;;
34521;SDS011;25561;48.888;8.736;2022-10-31T10:00:06;12.35;;;5.03;;
34521;SDS011;25561;48.888;8.736;2022-10-31T10:03:47;14.57;;;4.47;;
34521;SDS011;25561;48.888;8.736;2022-10-31T10:06:41;11.48;;;3.75;;
34521;SDS011;25561;48.888;8.736;2022-10-31T10:09:46;12.55;;;5.00;;
34521;SDS011;25561;48.888;8.736;2022-10-31T10:12:51;11.73;;;4.00;;
34521;SDS011;25561;48.888;8.736;2022-10-31T10:16:22;13.50;;;3.83;;
34521;SDS011;25561;48.888;8.736;2022-10-31T10:22:52;11.93;;;3.70;;
34521;SDS011;25561;48.888;8.736;2022-10-31T10:26:15;15.55;;;4.10;;
34521;SDS011;25561;48.888;8.736;2022-10-31T10:29:27;14.77;;;4.28;;
34521;SDS011;25561;48.888;8.736;2022-10-31T10:32:40;17.55;;;4.32;;
34521;SDS011;25561;48.888;8.736;2022-10-31T10:35:59;14.18;;;3.80;;
34521;SDS011;25561;48.888;8.736;2022-10-31T10:39:08;12.57;;;4.47;;
34521;SDS011;25561;48.888;8.736;2022-10-31T10:42:31;15.27;;;4.47;;
34521;SDS011;25561;48.888;8.736;2022-10-31T10:45:55;16.00;;;4.82;;
34521;SDS011;25561;48.888;8.736;2022-10-31T10:49:44;13.93;;;4.22;;
34521;SDS011;25561;48.888;8.736;2022-10-31T10:52:56;13.98;;;3.53;;
34521;SDS011;25561;48.888;8.736;2022-10-31T10:56:36;16.17;;;3.75;;
34521;SDS011;25561;48.888;8.736;2022-10-31T10:59:46;11.98;;;3.70;;
34521;SDS011;25561;48.888;8.736;2022-10-31T11:02:48;9.57;;;3.75;;
34521;SDS011;25561;48.888;8.736;2022-10-31T11:05:51;14.73;;;3.90;;
34521;SDS011;25561;48.888;8.736;2022-10-31T11:08:55;17.10;;;3.72;;
34521;SDS011;25561;48.888;8.736;2022-10-31T11:11:57;10.68;;;3.55;;
34521;SDS011;25561;48.888;8.736;2022-10-31T11:15:01;10.68;;;4.50;;
34521;SDS011;25561;48.888;8.736;2022-10-31T11:18:21;9.00;;;4.10;;
34521;SDS011;25561;48.888;8.736;2022-10-31T11:21:30;13.55;;;4.25;;
34521;SDS011;25561;48.888;8.736;2022-10-31T11:24:37;13.38;;;4.45;;
34521;SDS011;25561;48.888;8.736;2022-10-31T11:27:41;13.30;;;3.92;;
34521;SDS011;25561;48.888;8.736;2022-10-31T11:30:45;13.48;;;3.75;;
34521;SDS011;25561;48.888;8.736;2022-10-31T11:33:49;22.42;;;4.20;;
34521;SDS011;25561;48.888;8.736;2022-10-31T11:37:04;12.10;;;4.28;;
34521;SDS011;25561;48.888;8.736;2022-10-31T11:40:18;8.13;;;3.70;;
34521;SDS011;25561;48.888;8.736;2022-10-31T11:43:22;9.77;;;3.80;;
34521;SDS011;25561;48.888;8.736;2022-10-31T11:46:28;21.05;;;4.35;;
34521;SDS011;25561;48.888;8.736;2022-10-31T11:49:38;11.77;;;4.20;;
34521;SDS011;25561;48.888;8.736;2022-10-31T11:52:43;9.15;;;4.10;;
34521;SDS011;25561;48.888;8.736;2022-10-31T11:55:45;12.15;;;4.13;;
34521;SDS011;25561;48.888;8.736;2022-10-31T11:58:55;12.77;;;3.78;;
34521;SDS011;25561;48.888;8.736;2022-10-31T12:02:01;10.55;;;3.75;;
34521;SDS011;25561;48.888;8.736;2022-10-31T12:05:19;14.20;;;4.70;;
34521;SDS011;25561;48.888;8.736;2022-10-31T12:08:28;19.70;;;4.53;;
34521;SDS011;25561;48.888;8.736;2022-10-31T12:12:08;13.15;;;4.18;;
34521;SDS011;25561;48.888;8.736;2022-10-31T12:15:04;10.48;;;4.13;;
34521;SDS011;25561;48.888;8.736;2022-10-31T12:18:35;21.13;;;5.20;;
34521;SDS011;25561;48.888;8.736;2022-10-31T12:21:49;22.38;;;4.70;;
34521;SDS011;25561;48.888;8.736;2022-10-31T12:25:25;15.68;;;4.68;;
34521;SDS011;25561;48.888;8.736;2022-10-31T12:28:39;18.23;;;4.85;;
34521;SDS011;25561;48.888;8.736;2022-10-31T12:32:13;18.33;;;4.50;;
34521;SDS011;25561;48.888;8.736;2022-10-31T12:35:36;14.35;;;4.60;;
34521;SDS011;25561;48.888;8.736;2022-10-31T12:38:48;13.38;;;5.15;;
34521;SDS011;25561;48.888;8.736;2022-10-31T12:42:07;15.20;;;5.32;;
34521;SDS011;25561;48.888;8.736;2022-10-31T12:45:36;19.73;;;4.60;;
34521;SDS011;25561;48.888;8.736;2022-10-31T12:49:20;16.83;;;5.00;;
34521;SDS011;25561;48.888;8.736;2022-10-31T12:52:20;20.27;;;5.22;;
34521;SDS011;25561;48.888;8.736;2022-10-31T12:59:10;16.55;;;5.38;;
34521;SDS011;25561;48.888;8.736;2022-10-31T13:06:05;19.55;;;5.38;;
34521;SDS011;25561;48.888;8.736;2022-10-31T13:09:13;12.75;;;5.15;;
34521;SDS011;25561;48.888;8.736;2022-10-31T13:12:19;17.63;;;5.30;;
34521;SDS011;25561;48.888;8.736;2022-10-31T13:15:24;15.73;;;4.97;;
34521;SDS011;25561;48.888;8.736;2022-10-31T13:18:30;13.90;;;5.35;;
34521;SDS011;25561;48.888;8.736;2022-10-31T13:21:41;16.17;;;6.28;;
34521;SDS011;25561;48.888;8.736;2022-10-31T13:24:54;15.95;;;6.15;;
34521;SDS011;25561;48.888;8.736;2022-10-31T13:28:01;12.50;;;4.80;;
34521;SDS011;25561;48.888;8.736;2022-10-31T13:31:06;15.20;;;5.00;;
34521;SDS011;25561;48.888;8.736;2022-10-31T13:34:12;12.73;;;5.57;;
34521;SDS011;25561;48.888;8.736;2022-10-31T13:37:38;19.13;;;5.03;;
34521;SDS011;25561;48.888;8.736;2022-10-31T13:40:47;19.05;;;5.50;;
34521;SDS011;25561;48.888;8.736;2022-10-31T13:44:00;18.02;;;6.00;;
34521;SDS011;25561;48.888;8.736;2022-10-31T13:47:24;23.38;;;6.35;;
34521;SDS011;25561;48.888;8.736;2022-10-31T13:50:30;19.13;;;6.35;;
34521;SDS011;25561;48.888;8.736;2022-10-31T13:53:35;19.17;;;7.20;;
34521;SDS011;25561;48.888;8.736;2022-10-31T13:56:40;25.80;;;6.13;;
34521;SDS011;25561;48.888;8.736;2022-10-31T13:59:46;16.60;;;6.75;;
34521;SDS011;25561;48.888;8.736;2022-10-31T14:02:53;19.65;;;7.00;;
34521;SDS011;25561;48.888;8.736;2022-10-31T14:05:58;19.35;;;6.88;;
34521;SDS011;25561;48.888;8.736;2022-10-31T14:09:00;22.38;;;7.07;;
34521;SDS011;25561;48.888;8.736;2022-10-31T14:12:04;23.20;;;6.78;;
34521;SDS011;25561;48.888;8.736;2022-10-31T14:15:14;23.02;;;8.70;;
34521;SDS011;25561;48.888;8.736;2022-10-31T14:18:23;15.35;;;7.03;;
34521;SDS011;25561;48.888;8.736;2022-10-31T14:21:31;17.23;;;7.25;;
34521;SDS011;25561;48.888;8.736;2022-10-31T14:24:38;19.50;;;6.97;;
34521;SDS011;25561;48.888;8.736;2022-10-31T14:27:44;14.85;;;6.55;;
34521;SDS011;25561;48.888;8.736;2022-10-31T14:30:51;24.95;;;7.15;;
34521;SDS011;25561;48.888;8.736;2022-10-31T14:33:56;25.75;;;6.95;;
34521;SDS011;25561;48.888;8.736;2022-10-31T14:37:01;24.65;;;6.93;;
34521;SDS011;25561;48.888;8.736;2022-10-31T14:40:29;21.52;;;6.75;;
34521;SDS011;25561;48.888;8.736;2022-10-31T14:43:47;25.83;;;8.50;;
34521;SDS011;25561;48.888;8.736;2022-10-31T14:47:16;21.60;;;8.30;;
34521;SDS011;25561;48.888;8.736;2022-10-31T14:53:52;22.40;;;8.03;;
34521;SDS011;25561;48.888;8.736;2022-10-31T14:56:57;28.70;;;7.50;;
34521;SDS011;25561;48.888;8.736;2022-10-31T15:00:06;23.15;;;8.40;;
34521;SDS011;25561;48.888;8.736;2022-10-31T15:03:30;27.73;;;9.32;;
34521;SDS011;25561;48.888;8.736;2022-10-31T15:06:44;22.55;;;8.82;;
34521;SDS011;25561;48.888;8.736;2022-10-31T15:09:58;21.38;;;7.82;;
34521;SDS011;25561;48.888;8.736;2022-10-31T15:13:10;24.40;;;8.48;;
34521;SDS011;25561;48.888;8.736;2022-10-31T15:16:24;22.95;;;8.95;;
34521;SDS011;25561;48.888;8.736;2022-10-31T15:19:30;29.38;;;9.48;;
34521;SDS011;25561;48.888;8.736;2022-10-31T15:22:34;22.50;;;7.63;;
34521;SDS011;25561;48.888;8.736;2022-10-31T15:25:36;23.90;;;8.13;;
34521;SDS011;25561;48.888;8.736;2022-10-31T15:28:38;22.73;;;8.50;;
34521;SDS011;25561;48.888;8.736;2022-10-31T15:31:55;26.13;;;8.65;;
34521;SDS011;25561;48.888;8.736;2022-10-31T15:34:59;22.85;;;7.93;;
34521;SDS011;25561;48.888;8.736;2022-10-31T15:38:01;29.85;;;8.35;;
34521;SDS011;25561;48.888;8.736;2022-10-31T15:41:04;30.55;;;9.88;;
34521;SDS011;25561;48.888;8.736;2022-10-31T15:44:40;37.50;;;11.70;;
34521;SDS011;25561;48.888;8.736;2022-10-31T15:47:45;27.70;;;10.40;;
34521;SDS011;25561;48.888;8.736;2022-10-31T15:50:52;31.95;;;11.20;;
34521;SDS011;25561;48.888;8.736;2022-10-31T15:53:56;33.63;;;12.02;;
34521;SDS011;25561;48.888;8.736;2022-10-31T15:56:59;41.60;;;12.48;;
34521;SDS011;25561;48.888;8.736;2022-10-31T16:00:00;29.77;;;10.57;;
34521;SDS011;25561;48.888;8.736;2022-10-31T16:03:07;30.92;;;10.65;;
34521;SDS011;25561;48.888;8.736;2022-10-31T16:06:18;26.77;;;10.27;;
34521;SDS011;25561;48.888;8.736;2022-10-31T16:09:22;33.38;;;10.30;;
34521;SDS011;25561;48.888;8.736;2022-10-31T16:12:28;38.28;;;11.55;;
34521;SDS011;25561;48.888;8.736;2022-10-31T16:15:35;34.35;;;13.32;;
34521;SDS011;25561;48.888;8.736;2022-10-31T16:18:37;46.95;;;15.85;;
34521;SDS011;25561;48.888;8.736;2022-10-31T16:21:41;27.02;;;9.15;;
34521;SDS011;25561;48.888;8.736;2022-10-31T16:24:45;28.70;;;10.95;;
34521;SDS011;25561;48.888;8.736;2022-10-31T16:27:51;30.00;;;9.85;;
34521;SDS011;25561;48.888;8.736;2022-10-31T16:30:55;21.05;;;9.10;;
34521;SDS011;25561;48.888;8.736;2022-10-31T16:34:01;23.90;;;8.90;;
34521;SDS011;25561;48.888;8.736;2022-10-31T16:37:04;30.92;;;8.98;;
34521;SDS011;25561;48.888;8.736;2022-10-31T16:40:06;17.38;;;9.05;;
34521;SDS011;25561;48.888;8.736;2022-10-31T16:43:11;29.67;;;8.93;;
34521;SDS011;25561;48.888;8.736;2022-10-31T16:46:21;37.53;;;13.70;;
34521;SDS011;25561;48.888;8.736;2022-10-31T16:49:25;36.50;;;12.23;;
34521;SDS011;25561;48.888;8.736;2022-10-31T16:52:27;34.97;;;13.40;;
34521;SDS011;25561;48.888;8.736;2022-10-31T16:55:44;18.02;;;8.60;;
34521;SDS011;25561;48.888;8.736;2022-10-31T16:58:49;22.63;;;9.82;;
